If you wish to contribute or participate in the discussions about articles you are invited to join SKYbrary as a registered user

 Actions

Albert-Bray Airport

From SKYbrary Wiki

LFAQ
Airport
ICAO: LFAQ
Summary
Name Albert-Bray Airport
Region Europe
Territory France FR.gif
Location , Picardie
Serving Albert
Elevation 110.947 m
364 ft
364 ft110.947 m
Type small airport
Coordinates 49° 58' 17.51" N, 2° 41' 51.58" E
Runways
Designator Length Width Surface ROPS
9/27 1170 m3,838.583 ft
25 m82.021 ft
ASP /


METAR
Observation LFAQ 260030Z AUTO 35006KT 320V020 5000 BR NSC 18/16 Q1022
Station BRAY
Date/Time 26 June 2019 00:30:00
Wind direction 350°
Wind speed 06 kts
Lowest cloud amount nil significant cloud
Temperature 18°C
Dew point 16°C
Humidity 88%
QNH 1022 hPa
Weather condition n/a